sensor_id;sensor_type;location;lat;lon;timestamp;P1;durP1;ratioP1;P2;durP2;ratioP2
80559;SDS011;70065;42.700;23.316;2023-07-20T08:51:07;10.18;;;3.28;;
80559;SDS011;70065;42.700;23.316;2023-07-20T08:53:35;8.68;;;3.17;;
80559;SDS011;70065;42.700;23.316;2023-07-20T08:56:01;7.72;;;3.13;;
80559;SDS011;70065;42.700;23.316;2023-07-20T08:58:29;9.23;;;3.20;;
80559;SDS011;70065;42.700;23.316;2023-07-20T09:00:55;7.10;;;3.10;;
80559;SDS011;70065;42.700;23.316;2023-07-20T09:03:24;7.35;;;3.10;;
80559;SDS011;70065;42.700;23.316;2023-07-20T09:05:50;5.65;;;2.97;;
80559;SDS011;70065;42.700;23.316;2023-07-20T09:08:16;7.60;;;3.05;;
80559;SDS011;70065;42.700;23.316;2023-07-20T09:10:41;8.15;;;3.63;;
80559;SDS011;70065;42.700;23.316;2023-07-20T09:13:07;8.02;;;2.97;;
80559;SDS011;70065;42.700;23.316;2023-07-20T09:15:33;8.95;;;3.72;;
80559;SDS011;70065;42.700;23.316;2023-07-20T09:18:00;6.65;;;3.15;;
80559;SDS011;70065;42.700;23.316;2023-07-20T09:20:28;10.30;;;3.28;;
80559;SDS011;70065;42.700;23.316;2023-07-20T09:23:04;9.05;;;3.33;;
80559;SDS011;70065;42.700;23.316;2023-07-20T09:25:31;9.50;;;3.30;;
80559;SDS011;70065;42.700;23.316;2023-07-20T09:27:58;7.22;;;3.40;;
80559;SDS011;70065;42.700;23.316;2023-07-20T09:30:28;8.93;;;3.33;;
80559;SDS011;70065;42.700;23.316;2023-07-20T09:32:54;6.30;;;3.20;;
80559;SDS011;70065;42.700;23.316;2023-07-20T09:35:21;6.45;;;3.00;;
80559;SDS011;70065;42.700;23.316;2023-07-20T09:37:58;5.80;;;3.05;;
80559;SDS011;70065;42.700;23.316;2023-07-20T09:40:25;7.75;;;3.40;;
80559;SDS011;70065;42.700;23.316;2023-07-20T09:42:53;7.07;;;3.25;;
80559;SDS011;70065;42.700;23.316;2023-07-20T09:45:28;8.75;;;3.28;;
80559;SDS011;70065;42.700;23.316;2023-07-20T09:48:14;6.00;;;2.90;;
80559;SDS011;70065;42.700;23.316;2023-07-20T09:50:41;7.32;;;3.00;;
80559;SDS011;70065;42.700;23.316;2023-07-20T09:53:12;7.32;;;2.95;;
80559;SDS011;70065;42.700;23.316;2023-07-20T09:55:39;6.93;;;2.90;;
80559;SDS011;70065;42.700;23.316;2023-07-20T09:58:08;6.88;;;3.15;;
80559;SDS011;70065;42.700;23.316;2023-07-20T10:00:35;8.55;;;3.35;;
80559;SDS011;70065;42.700;23.316;2023-07-20T10:03:03;5.82;;;3.13;;
80559;SDS011;70065;42.700;23.316;2023-07-20T10:05:34;6.75;;;3.28;;
80559;SDS011;70065;42.700;23.316;2023-07-20T10:08:03;7.70;;;3.35;;
80559;SDS011;70065;42.700;23.316;2023-07-20T10:10:33;6.70;;;3.13;;
80559;SDS011;70065;42.700;23.316;2023-07-20T10:13:01;9.15;;;3.50;;
80559;SDS011;70065;42.700;23.316;2023-07-20T10:18:42;7.60;;;3.00;;
80559;SDS011;70065;42.700;23.316;2023-07-20T10:21:06;6.03;;;3.10;;
80559;SDS011;70065;42.700;23.316;2023-07-20T10:23:33;6.40;;;3.22;;
80559;SDS011;70065;42.700;23.316;2023-07-20T10:25:59;7.03;;;3.00;;
80559;SDS011;70065;42.700;23.316;2023-07-20T10:28:32;7.20;;;2.83;;
80559;SDS011;70065;42.700;23.316;2023-07-20T10:30:58;6.68;;;2.78;;
80559;SDS011;70065;42.700;23.316;2023-07-20T10:33:24;7.78;;;2.63;;
80559;SDS011;70065;42.700;23.316;2023-07-20T10:35:51;7.43;;;3.30;;
80559;SDS011;70065;42.700;23.316;2023-07-20T10:38:40;6.38;;;3.35;;
80559;SDS011;70065;42.700;23.316;2023-07-20T10:44:04;5.00;;;2.78;;
80559;SDS011;70065;42.700;23.316;2023-07-20T10:46:41;7.13;;;3.10;;
80559;SDS011;70065;42.700;23.316;2023-07-20T10:49:09;7.28;;;3.22;;
80559;SDS011;70065;42.700;23.316;2023-07-20T10:51:43;6.15;;;3.28;;
80559;SDS011;70065;42.700;23.316;2023-07-20T10:56:52;6.32;;;3.08;;
80559;SDS011;70065;42.700;23.316;2023-07-20T10:59:38;7.75;;;3.20;;
80559;SDS011;70065;42.700;23.316;2023-07-20T11:02:08;6.45;;;2.95;;
80559;SDS011;70065;42.700;23.316;2023-07-20T11:07:06;5.60;;;2.92;;
80559;SDS011;70065;42.700;23.316;2023-07-20T11:09:36;4.95;;;2.80;;
80559;SDS011;70065;42.700;23.316;2023-07-20T11:12:13;5.13;;;2.97;;
80559;SDS011;70065;42.700;23.316;2023-07-20T11:14:41;7.82;;;2.92;;
80559;SDS011;70065;42.700;23.316;2023-07-20T11:17:14;6.28;;;3.10;;
80559;SDS011;70065;42.700;23.316;2023-07-20T11:19:47;5.10;;;2.72;;
80559;SDS011;70065;42.700;23.316;2023-07-20T11:22:13;9.20;;;3.30;;
80559;SDS011;70065;42.700;23.316;2023-07-20T11:24:42;7.05;;;3.05;;
80559;SDS011;70065;42.700;23.316;2023-07-20T11:27:09;5.65;;;2.92;;
80559;SDS011;70065;42.700;23.316;2023-07-20T11:29:34;5.97;;;3.15;;
80559;SDS011;70065;42.700;23.316;2023-07-20T11:32:02;6.25;;;3.20;;
80559;SDS011;70065;42.700;23.316;2023-07-20T11:34:30;5.20;;;2.78;;
80559;SDS011;70065;42.700;23.316;2023-07-20T11:36:56;4.63;;;2.67;;
80559;SDS011;70065;42.700;23.316;2023-07-20T11:39:23;5.30;;;2.88;;
80559;SDS011;70065;42.700;23.316;2023-07-20T11:41:52;6.32;;;2.80;;
80559;SDS011;70065;42.700;23.316;2023-07-20T11:44:20;5.78;;;2.92;;
80559;SDS011;70065;42.700;23.316;2023-07-20T11:47:05;5.05;;;3.20;;
80559;SDS011;70065;42.700;23.316;2023-07-20T11:49:38;4.70;;;2.78;;
80559;SDS011;70065;42.700;23.316;2023-07-20T11:52:09;4.88;;;2.75;;
80559;SDS011;70065;42.700;23.316;2023-07-20T11:54:41;5.82;;;2.65;;
80559;SDS011;70065;42.700;23.316;2023-07-20T11:57:18;5.68;;;2.70;;
80559;SDS011;70065;42.700;23.316;2023-07-20T11:59:54;7.25;;;3.15;;
80559;SDS011;70065;42.700;23.316;2023-07-20T12:02:27;5.05;;;2.83;;
80559;SDS011;70065;42.700;23.316;2023-07-20T12:04:56;4.57;;;2.90;;
80559;SDS011;70065;42.700;23.316;2023-07-20T12:07:22;6.20;;;3.10;;
80559;SDS011;70065;42.700;23.316;2023-07-20T12:10:07;6.63;;;3.00;;
80559;SDS011;70065;42.700;23.316;2023-07-20T12:12:34;3.47;;;2.83;;
80559;SDS011;70065;42.700;23.316;2023-07-20T12:17:41;5.35;;;2.90;;
80559;SDS011;70065;42.700;23.316;2023-07-20T12:20:08;5.05;;;2.63;;
80559;SDS011;70065;42.700;23.316;2023-07-20T12:22:40;4.15;;;2.45;;
80559;SDS011;70065;42.700;23.316;2023-07-20T12:25:07;6.57;;;2.80;;
80559;SDS011;70065;42.700;23.316;2023-07-20T12:27:38;6.03;;;2.80;;
80559;SDS011;70065;42.700;23.316;2023-07-20T12:30:05;4.82;;;3.03;;
80559;SDS011;70065;42.700;23.316;2023-07-20T12:32:33;4.35;;;2.65;;
80559;SDS011;70065;42.700;23.316;2023-07-20T12:34:59;5.47;;;3.00;;
80559;SDS011;70065;42.700;23.316;2023-07-20T12:37:25;4.57;;;2.70;;
80559;SDS011;70065;42.700;23.316;2023-07-20T12:39:52;3.92;;;2.42;;
80559;SDS011;70065;42.700;23.316;2023-07-20T12:42:18;6.43;;;2.80;;
80559;SDS011;70065;42.700;23.316;2023-07-20T12:44:43;6.70;;;2.72;;
80559;SDS011;70065;42.700;23.316;2023-07-20T12:47:10;4.40;;;2.70;;
80559;SDS011;70065;42.700;23.316;2023-07-20T12:49:38;5.63;;;3.03;;
80559;SDS011;70065;42.700;23.316;2023-07-20T12:52:04;4.78;;;2.90;;
80559;SDS011;70065;42.700;23.316;2023-07-20T12:54:30;5.45;;;2.67;;
80559;SDS011;70065;42.700;23.316;2023-07-20T12:56:56;4.95;;;2.78;;
80559;SDS011;70065;42.700;23.316;2023-07-20T12:59:22;5.20;;;3.00;;
80559;SDS011;70065;42.700;23.316;2023-07-20T13:01:48;5.25;;;3.00;;
80559;SDS011;70065;42.700;23.316;2023-07-20T13:04:14;6.82;;;2.92;;
80559;SDS011;70065;42.700;23.316;2023-07-20T13:06:41;4.72;;;2.65;;
80559;SDS011;70065;42.700;23.316;2023-07-20T13:09:07;4.07;;;2.70;;
80559;SDS011;70065;42.700;23.316;2023-07-20T13:11:33;5.53;;;2.95;;
80559;SDS011;70065;42.700;23.316;2023-07-20T13:13:58;6.30;;;2.80;;
80559;SDS011;70065;42.700;23.316;2023-07-20T13:16:24;4.68;;;2.80;;
80559;SDS011;70065;42.700;23.316;2023-07-20T13:18:50;4.93;;;2.58;;
80559;SDS011;70065;42.700;23.316;2023-07-20T13:21:20;5.32;;;2.50;;
80559;SDS011;70065;42.700;23.316;2023-07-20T13:23:47;6.80;;;3.03;;
80559;SDS011;70065;42.700;23.316;2023-07-20T13:26:14;4.32;;;2.65;;
80559;SDS011;70065;42.700;23.316;2023-07-20T13:28:41;4.28;;;2.63;;
80559;SDS011;70065;42.700;23.316;2023-07-20T13:31:08;4.38;;;2.60;;
80559;SDS011;70065;42.700;23.316;2023-07-20T13:33:37;4.78;;;2.75;;
80559;SDS011;70065;42.700;23.316;2023-07-20T13:36:03;4.43;;;2.78;;
80559;SDS011;70065;42.700;23.316;2023-07-20T13:38:33;4.93;;;2.70;;
80559;SDS011;70065;42.700;23.316;2023-07-20T13:40:59;4.35;;;3.00;;
80559;SDS011;70065;42.700;23.316;2023-07-20T13:43:25;4.82;;;2.53;;
80559;SDS011;70065;42.700;23.316;2023-07-20T13:45:51;4.30;;;2.80;;
80559;SDS011;70065;42.700;23.316;2023-07-20T13:48:17;4.20;;;2.60;;
80559;SDS011;70065;42.700;23.316;2023-07-20T13:50:46;4.90;;;2.60;;
80559;SDS011;70065;42.700;23.316;2023-07-20T13:53:14;6.35;;;3.10;;
80559;SDS011;70065;42.700;23.316;2023-07-20T13:55:42;4.35;;;2.60;;
80559;SDS011;70065;42.700;23.316;2023-07-20T13:58:08;4.10;;;2.83;;
80559;SDS011;70065;42.700;23.316;2023-07-20T14:00:35;3.83;;;2.55;;
80559;SDS011;70065;42.700;23.316;2023-07-20T14:03:01;5.18;;;2.80;;
80559;SDS011;70065;42.700;23.316;2023-07-20T14:05:26;5.53;;;2.67;;
80559;SDS011;70065;42.700;23.316;2023-07-20T14:07:54;6.70;;;2.80;;
80559;SDS011;70065;42.700;23.316;2023-07-20T14:10:20;4.55;;;2.60;;
80559;SDS011;70065;42.700;23.316;2023-07-20T14:12:46;3.92;;;2.67;;
80559;SDS011;70065;42.700;23.316;2023-07-20T14:15:11;5.65;;;2.80;;
80559;SDS011;70065;42.700;23.316;2023-07-20T14:17:37;4.53;;;2.25;;
80559;SDS011;70065;42.700;23.316;2023-07-20T14:20:03;6.03;;;2.80;;
80559;SDS011;70065;42.700;23.316;2023-07-20T14:22:33;4.53;;;2.67;;
80559;SDS011;70065;42.700;23.316;2023-07-20T14:24:59;4.43;;;2.33;;
80559;SDS011;70065;42.700;23.316;2023-07-20T14:27:24;5.57;;;2.70;;
80559;SDS011;70065;42.700;23.316;2023-07-20T14:29:50;4.72;;;2.67;;
80559;SDS011;70065;42.700;23.316;2023-07-20T14:32:16;5.03;;;2.83;;
80559;SDS011;70065;42.700;23.316;2023-07-20T14:34:41;4.85;;;2.70;;
80559;SDS011;70065;42.700;23.316;2023-07-20T14:37:08;3.80;;;2.67;;
80559;SDS011;70065;42.700;23.316;2023-07-20T14:39:34;4.90;;;2.97;;
80559;SDS011;70065;42.700;23.316;2023-07-20T14:42:00;3.97;;;2.72;;
80559;SDS011;70065;42.700;23.316;2023-07-20T14:44:26;5.72;;;2.90;;
80559;SDS011;70065;42.700;23.316;2023-07-20T14:46:51;4.43;;;2.72;;
80559;SDS011;70065;42.700;23.316;2023-07-20T14:49:17;3.60;;;2.67;;
80559;SDS011;70065;42.700;23.316;2023-07-20T14:51:43;4.53;;;2.42;;
80559;SDS011;70065;42.700;23.316;2023-07-20T14:54:11;3.88;;;2.65;;
80559;SDS011;70065;42.700;23.316;2023-07-20T14:56:38;4.55;;;2.80;;
80559;SDS011;70065;42.700;23.316;2023-07-20T14:59:05;5.93;;;2.80;;
80559;SDS011;70065;42.700;23.316;2023-07-20T15:01:33;5.15;;;2.72;;
80559;SDS011;70065;42.700;23.316;2023-07-20T15:03:58;4.15;;;2.75;;
80559;SDS011;70065;42.700;23.316;2023-07-20T15:06:26;3.75;;;2.40;;
80559;SDS011;70065;42.700;23.316;2023-07-20T15:08:56;3.78;;;2.72;;
80559;SDS011;70065;42.700;23.316;2023-07-20T15:11:23;3.15;;;2.40;;
80559;SDS011;70065;42.700;23.316;2023-07-20T15:13:49;5.03;;;2.78;;
80559;SDS011;70065;42.700;23.316;2023-07-20T15:16:15;4.57;;;2.70;;
80559;SDS011;70065;42.700;23.316;2023-07-20T15:18:41;5.60;;;2.65;;
80559;SDS011;70065;42.700;23.316;2023-07-20T15:21:07;3.75;;;2.35;;
80559;SDS011;70065;42.700;23.316;2023-07-20T15:23:32;3.92;;;2.58;;
80559;SDS011;70065;42.700;23.316;2023-07-20T15:25:58;4.32;;;2.80;;
80559;SDS011;70065;42.700;23.316;2023-07-20T15:28:24;4.35;;;2.60;;
80559;SDS011;70065;42.700;23.316;2023-07-20T15:30:49;4.43;;;2.45;;
80559;SDS011;70065;42.700;23.316;2023-07-20T15:33:16;3.63;;;2.50;;
80559;SDS011;70065;42.700;23.316;2023-07-20T15:35:42;3.90;;;2.60;;
80559;SDS011;70065;42.700;23.316;2023-07-20T15:38:09;4.03;;;2.80;;
80559;SDS011;70065;42.700;23.316;2023-07-20T15:40:35;3.33;;;2.45;;
80559;SDS011;70065;42.700;23.316;2023-07-20T15:43:01;4.68;;;2.90;;
80559;SDS011;70065;42.700;23.316;2023-07-20T15:45:28;3.95;;;2.40;;
80559;SDS011;70065;42.700;23.316;2023-07-20T15:47:54;4.60;;;2.55;;
80559;SDS011;70065;42.700;23.316;2023-07-20T15:50:22;3.60;;;2.78;;
80559;SDS011;70065;42.700;23.316;2023-07-20T15:52:47;3.90;;;2.80;;
80559;SDS011;70065;42.700;23.316;2023-07-20T15:55:13;4.75;;;2.85;;
80559;SDS011;70065;42.700;23.316;2023-07-20T15:57:40;4.60;;;2.50;;
80559;SDS011;70065;42.700;23.316;2023-07-20T16:00:06;3.47;;;2.22;;
80559;SDS011;70065;42.700;23.316;2023-07-20T16:02:34;3.50;;;2.63;;
80559;SDS011;70065;42.700;23.316;2023-07-20T16:05:00;4.00;;;2.70;;
80559;SDS011;70065;42.700;23.316;2023-07-20T16:07:26;4.15;;;2.63;;
80559;SDS011;70065;42.700;23.316;2023-07-20T16:09:51;4.32;;;2.45;;
80559;SDS011;70065;42.700;23.316;2023-07-20T16:12:18;4.40;;;2.90;;
80559;SDS011;70065;42.700;23.316;2023-07-20T16:14:50;4.38;;;2.75;;
80559;SDS011;70065;42.700;23.316;2023-07-20T16:17:16;4.10;;;2.70;;
80559;SDS011;70065;42.700;23.316;2023-07-20T16:19:42;6.10;;;2.78;;
80559;SDS011;70065;42.700;23.316;2023-07-20T16:22:08;5.03;;;2.95;;
80559;SDS011;70065;42.700;23.316;2023-07-20T16:24:36;4.13;;;2.65;;
80559;SDS011;70065;42.700;23.316;2023-07-20T16:27:03;4.72;;;2.45;;
80559;SDS011;70065;42.700;23.316;2023-07-20T16:29:30;3.35;;;2.53;;
80559;SDS011;70065;42.700;23.316;2023-07-20T16:31:56;4.88;;;2.60;;
80559;SDS011;70065;42.700;23.316;2023-07-20T16:34:22;4.40;;;2.78;;
80559;SDS011;70065;42.700;23.316;2023-07-20T16:36:47;4.13;;;2.50;;
80559;SDS011;70065;42.700;23.316;2023-07-20T16:39:13;3.47;;;2.50;;
80559;SDS011;70065;42.700;23.316;2023-07-20T16:41:39;4.20;;;2.65;;
80559;SDS011;70065;42.700;23.316;2023-07-20T16:44:05;5.00;;;2.97;;
80559;SDS011;70065;42.700;23.316;2023-07-20T16:46:32;3.17;;;2.50;;
80559;SDS011;70065;42.700;23.316;2023-07-20T16:48:59;4.57;;;2.70;;
80559;SDS011;70065;42.700;23.316;2023-07-20T16:51:31;4.30;;;2.60;;
80559;SDS011;70065;42.700;23.316;2023-07-20T16:53:57;5.13;;;2.92;;
80559;SDS011;70065;42.700;23.316;2023-07-20T16:56:23;4.10;;;2.38;;
80559;SDS011;70065;42.700;23.316;2023-07-20T16:58:48;4.07;;;2.60;;
80559;SDS011;70065;42.700;23.316;2023-07-20T17:01:14;4.55;;;2.80;;
80559;SDS011;70065;42.700;23.316;2023-07-20T17:03:41;3.58;;;2.45;;
80559;SDS011;70065;42.700;23.316;2023-07-20T17:06:07;4.55;;;2.60;;
80559;SDS011;70065;42.700;23.316;2023-07-20T17:08:33;3.75;;;2.50;;
80559;SDS011;70065;42.700;23.316;2023-07-20T17:11:00;4.60;;;2.53;;
80559;SDS011;70065;42.700;23.316;2023-07-20T17:13:27;3.63;;;2.50;;
80559;SDS011;70065;42.700;23.316;2023-07-20T17:15:54;3.67;;;2.45;;
80559;SDS011;70065;42.700;23.316;2023-07-20T17:18:20;3.83;;;2.58;;
80559;SDS011;70065;42.700;23.316;2023-07-20T17:20:46;4.47;;;2.58;;
80559;SDS011;70065;42.700;23.316;2023-07-20T17:23:15;4.72;;;2.58;;
80559;SDS011;70065;42.700;23.316;2023-07-20T17:25:44;2.80;;;2.50;;
80559;SDS011;70065;42.700;23.316;2023-07-20T17:28:14;3.70;;;2.60;;
80559;SDS011;70065;42.700;23.316;2023-07-20T17:30:40;3.53;;;2.35;;
80559;SDS011;70065;42.700;23.316;2023-07-20T17:33:06;4.78;;;2.72;;
80559;SDS011;70065;42.700;23.316;2023-07-20T17:35:33;4.07;;;2.40;;
80559;SDS011;70065;42.700;23.316;2023-07-20T17:37:59;4.43;;;2.55;;
80559;SDS011;70065;42.700;23.316;2023-07-20T17:40:26;4.10;;;2.75;;
80559;SDS011;70065;42.700;23.316;2023-07-20T17:42:53;4.07;;;2.88;;
80559;SDS011;70065;42.700;23.316;2023-07-20T17:45:19;3.78;;;2.38;;
80559;SDS011;70065;42.700;23.316;2023-07-20T17:47:47;5.40;;;3.00;;
80559;SDS011;70065;42.700;23.316;2023-07-20T17:50:12;4.70;;;2.63;;
80559;SDS011;70065;42.700;23.316;2023-07-20T17:52:39;5.05;;;2.55;;
80559;SDS011;70065;42.700;23.316;2023-07-20T17:55:06;4.20;;;2.70;;
80559;SDS011;70065;42.700;23.316;2023-07-20T17:57:33;4.18;;;2.88;;
80559;SDS011;70065;42.700;23.316;2023-07-20T17:59:58;4.35;;;2.75;;
80559;SDS011;70065;42.700;23.316;2023-07-20T18:02:25;4.18;;;2.50;;
80559;SDS011;70065;42.700;23.316;2023-07-20T18:04:52;4.10;;;2.63;;
80559;SDS011;70065;42.700;23.316;2023-07-20T18:07:18;3.38;;;2.30;;
80559;SDS011;70065;42.700;23.316;2023-07-20T18:09:44;4.72;;;3.03;;
80559;SDS011;70065;42.700;23.316;2023-07-20T18:12:09;3.17;;;2.35;;
80559;SDS011;70065;42.700;23.316;2023-07-20T18:14:35;2.78;;;2.50;;
80559;SDS011;70065;42.700;23.316;2023-07-20T18:17:01;4.45;;;2.50;;
80559;SDS011;70065;42.700;23.316;2023-07-20T18:19:27;3.42;;;2.40;;
80559;SDS011;70065;42.700;23.316;2023-07-20T18:21:55;4.00;;;2.60;;
80559;SDS011;70065;42.700;23.316;2023-07-20T18:24:21;3.85;;;2.67;;
80559;SDS011;70065;42.700;23.316;2023-07-20T18:26:46;4.88;;;2.70;;
80559;SDS011;70065;42.700;23.316;2023-07-20T18:29:12;4.80;;;2.63;;
80559;SDS011;70065;42.700;23.316;2023-07-20T18:31:38;5.53;;;3.00;;
80559;SDS011;70065;42.700;23.316;2023-07-20T18:34:04;2.47;;;2.10;;
80559;SDS011;70065;42.700;23.316;2023-07-20T18:36:31;3.28;;;2.40;;
80559;SDS011;70065;42.700;23.316;2023-07-20T18:38:57;4.00;;;2.50;;
80559;SDS011;70065;42.700;23.316;2023-07-20T18:41:22;3.65;;;2.40;;
80559;SDS011;70065;42.700;23.316;2023-07-20T18:43:48;3.30;;;2.60;;
80559;SDS011;70065;42.700;23.316;2023-07-20T18:46:14;4.63;;;2.67;;
80559;SDS011;70065;42.700;23.316;2023-07-20T18:48:44;3.13;;;2.60;;
80559;SDS011;70065;42.700;23.316;2023-07-20T18:51:10;3.20;;;2.50;;
80559;SDS011;70065;42.700;23.316;2023-07-20T18:53:38;4.38;;;2.50;;
80559;SDS011;70065;42.700;23.316;2023-07-20T18:56:04;2.70;;;2.13;;
80559;SDS011;70065;42.700;23.316;2023-07-20T18:58:31;3.38;;;2.58;;
80559;SDS011;70065;42.700;23.316;2023-07-20T19:00:58;4.05;;;2.60;;
80559;SDS011;70065;42.700;23.316;2023-07-20T19:03:24;4.32;;;2.63;;
80559;SDS011;70065;42.700;23.316;2023-07-20T19:05:51;2.65;;;2.28;;
80559;SDS011;70065;42.700;23.316;2023-07-20T19:08:17;3.50;;;2.50;;
80559;SDS011;70065;42.700;23.316;2023-07-20T19:10:42;3.08;;;2.65;;
80559;SDS011;70065;42.700;23.316;2023-07-20T19:13:08;3.35;;;2.38;;
80559;SDS011;70065;42.700;23.316;2023-07-20T19:15:34;3.53;;;2.38;;
80559;SDS011;70065;42.700;23.316;2023-07-20T19:17:59;3.28;;;2.33;;
80559;SDS011;70065;42.700;23.316;2023-07-20T19:20:25;4.97;;;2.88;;
80559;SDS011;70065;42.700;23.316;2023-07-20T19:22:51;3.85;;;2.55;;
80559;SDS011;70065;42.700;23.316;2023-07-20T19:25:16;3.17;;;2.17;;
80559;SDS011;70065;42.700;23.316;2023-07-20T19:27:43;2.47;;;2.28;;
80559;SDS011;70065;42.700;23.316;2023-07-20T19:30:09;3.45;;;2.17;;
80559;SDS011;70065;42.700;23.316;2023-07-20T19:32:35;3.42;;;2.38;;
80559;SDS011;70065;42.700;23.316;2023-07-20T19:35:01;2.40;;;2.20;;
80559;SDS011;70065;42.700;23.316;2023-07-20T19:37:28;3.38;;;2.47;;
80559;SDS011;70065;42.700;23.316;2023-07-20T19:39:54;2.78;;;2.13;;
80559;SDS011;70065;42.700;23.316;2023-07-20T19:42:19;4.18;;;2.40;;
80559;SDS011;70065;42.700;23.316;2023-07-20T19:44:46;2.47;;;2.10;;
80559;SDS011;70065;42.700;23.316;2023-07-20T19:47:12;4.53;;;2.60;;
80559;SDS011;70065;42.700;23.316;2023-07-20T19:49:38;3.88;;;2.40;;
80559;SDS011;70065;42.700;23.316;2023-07-20T19:52:04;3.80;;;2.50;;
80559;SDS011;70065;42.700;23.316;2023-07-20T19:54:29;3.00;;;2.25;;
80559;SDS011;70065;42.700;23.316;2023-07-20T19:56:55;2.70;;;2.30;;
80559;SDS011;70065;42.700;23.316;2023-07-20T19:59:21;4.03;;;2.53;;
80559;SDS011;70065;42.700;23.316;2023-07-20T20:01:48;4.57;;;2.72;;
80559;SDS011;70065;42.700;23.316;2023-07-20T20:04:15;3.40;;;2.50;;
80559;SDS011;70065;42.700;23.316;2023-07-20T20:06:45;4.68;;;2.50;;
80559;SDS011;70065;42.700;23.316;2023-07-20T20:09:13;4.32;;;2.70;;
80559;SDS011;70065;42.700;23.316;2023-07-20T20:11:41;4.00;;;2.33;;
80559;SDS011;70065;42.700;23.316;2023-07-20T20:14:08;3.90;;;2.50;;
80559;SDS011;70065;42.700;23.316;2023-07-20T20:16:33;2.92;;;2.47;;
80559;SDS011;70065;42.700;23.316;2023-07-20T20:18:59;4.32;;;2.55;;
80559;SDS011;70065;42.700;23.316;2023-07-20T20:21:25;2.85;;;2.42;;
80559;SDS011;70065;42.700;23.316;2023-07-20T20:23:51;4.70;;;2.40;;
80559;SDS011;70065;42.700;23.316;2023-07-20T20:26:16;2.88;;;2.10;;
80559;SDS011;70065;42.700;23.316;2023-07-20T20:28:42;2.80;;;2.35;;
80559;SDS011;70065;42.700;23.316;2023-07-20T20:31:08;3.38;;;2.63;;
80559;SDS011;70065;42.700;23.316;2023-07-20T20:33:34;3.63;;;2.50;;
80559;SDS011;70065;42.700;23.316;2023-07-20T20:36:00;2.80;;;2.40;;
80559;SDS011;70065;42.700;23.316;2023-07-20T20:38:26;4.20;;;2.45;;
80559;SDS011;70065;42.700;23.316;2023-07-20T20:40:53;3.90;;;2.47;;
80559;SDS011;70065;42.700;23.316;2023-07-20T20:43:19;3.20;;;2.20;;
80559;SDS011;70065;42.700;23.316;2023-07-20T20:45:46;3.42;;;2.42;;
80559;SDS011;70065;42.700;23.316;2023-07-20T20:48:17;4.55;;;2.50;;
80559;SDS011;70065;42.700;23.316;2023-07-20T20:50:46;2.60;;;2.10;;
80559;SDS011;70065;42.700;23.316;2023-07-20T20:53:12;3.53;;;2.53;;
80559;SDS011;70065;42.700;23.316;2023-07-20T20:55:38;2.97;;;2.30;;
80559;SDS011;70065;42.700;23.316;2023-07-20T20:58:05;3.30;;;2.35;;
80559;SDS011;70065;42.700;23.316;2023-07-20T21:00:31;2.92;;;2.10;;
80559;SDS011;70065;42.700;23.316;2023-07-20T21:02:56;2.47;;;2.20;;
80559;SDS011;70065;42.700;23.316;2023-07-20T21:05:22;4.38;;;2.55;;
80559;SDS011;70065;42.700;23.316;2023-07-20T21:07:49;2.88;;;2.28;;
80559;SDS011;70065;42.700;23.316;2023-07-20T21:10:18;4.22;;;2.33;;
80559;SDS011;70065;42.700;23.316;2023-07-20T21:12:45;2.67;;;2.10;;
80559;SDS011;70065;42.700;23.316;2023-07-20T21:15:11;3.97;;;2.42;;
80559;SDS011;70065;42.700;23.316;2023-07-20T21:17:37;2.95;;;2.40;;
80559;SDS011;70065;42.700;23.316;2023-07-20T21:20:03;3.22;;;2.40;;
80559;SDS011;70065;42.700;23.316;2023-07-20T21:22:31;3.80;;;2.33;;
80559;SDS011;70065;42.700;23.316;2023-07-20T21:24:57;3.22;;;2.28;;
80559;SDS011;70065;42.700;23.316;2023-07-20T21:27:23;3.13;;;2.33;;
80559;SDS011;70065;42.700;23.316;2023-07-20T21:29:49;3.08;;;2.35;;
80559;SDS011;70065;42.700;23.316;2023-07-20T21:32:15;3.60;;;2.40;;
80559;SDS011;70065;42.700;23.316;2023-07-20T21:34:42;4.05;;;2.33;;
80559;SDS011;70065;42.700;23.316;2023-07-20T21:37:10;3.55;;;2.20;;
80559;SDS011;70065;42.700;23.316;2023-07-20T21:39:36;3.88;;;2.67;;
80559;SDS011;70065;42.700;23.316;2023-07-20T21:42:01;4.15;;;2.50;;
80559;SDS011;70065;42.700;23.316;2023-07-20T21:44:29;4.00;;;2.38;;
80559;SDS011;70065;42.700;23.316;2023-07-20T21:46:54;3.83;;;2.63;;
80559;SDS011;70065;42.700;23.316;2023-07-20T21:49:22;2.47;;;2.13;;
80559;SDS011;70065;42.700;23.316;2023-07-20T21:51:48;2.80;;;2.15;;
80559;SDS011;70065;42.700;23.316;2023-07-20T21:54:15;2.75;;;2.38;;
80559;SDS011;70065;42.700;23.316;2023-07-20T21:56:41;2.85;;;2.25;;
80559;SDS011;70065;42.700;23.316;2023-07-20T21:59:06;3.92;;;2.42;;
80559;SDS011;70065;42.700;23.316;2023-07-20T22:01:32;2.75;;;2.35;;
80559;SDS011;70065;42.700;23.316;2023-07-20T22:03:58;3.15;;;2.50;;
80559;SDS011;70065;42.700;23.316;2023-07-20T22:06:24;3.53;;;2.28;;
80559;SDS011;70065;42.700;23.316;2023-07-20T22:08:49;3.33;;;2.40;;
80559;SDS011;70065;42.700;23.316;2023-07-20T22:11:16;4.35;;;2.50;;
80559;SDS011;70065;42.700;23.316;2023-07-20T22:13:42;3.35;;;2.17;;
80559;SDS011;70065;42.700;23.316;2023-07-20T22:16:08;3.47;;;2.70;;
80559;SDS011;70065;42.700;23.316;2023-07-20T22:18:34;4.07;;;2.65;;
80559;SDS011;70065;42.700;23.316;2023-07-20T22:20:59;2.72;;;2.25;;
80559;SDS011;70065;42.700;23.316;2023-07-20T22:23:29;2.95;;;2.33;;
80559;SDS011;70065;42.700;23.316;2023-07-20T22:25:56;3.00;;;2.30;;
80559;SDS011;70065;42.700;23.316;2023-07-20T22:28:22;3.58;;;2.47;;
80559;SDS011;70065;42.700;23.316;2023-07-20T22:30:48;3.38;;;2.38;;
80559;SDS011;70065;42.700;23.316;2023-07-20T22:33:16;4.15;;;2.38;;
80559;SDS011;70065;42.700;23.316;2023-07-20T22:35:43;3.97;;;2.70;;
80559;SDS011;70065;42.700;23.316;2023-07-20T22:38:08;4.03;;;2.55;;
80559;SDS011;70065;42.700;23.316;2023-07-20T22:40:34;3.30;;;2.08;;
80559;SDS011;70065;42.700;23.316;2023-07-20T22:43:00;3.60;;;2.60;;
80559;SDS011;70065;42.700;23.316;2023-07-20T22:45:25;3.72;;;2.30;;
80559;SDS011;70065;42.700;23.316;2023-07-20T22:47:52;2.75;;;2.25;;
80559;SDS011;70065;42.700;23.316;2023-07-20T22:50:18;4.47;;;2.35;;
80559;SDS011;70065;42.700;23.316;2023-07-20T22:52:44;3.33;;;2.50;;
80559;SDS011;70065;42.700;23.316;2023-07-20T22:55:11;5.32;;;2.70;;
80559;SDS011;70065;42.700;23.316;2023-07-20T22:57:36;3.22;;;2.28;;
80559;SDS011;70065;42.700;23.316;2023-07-20T23:00:03;3.67;;;2.20;;
80559;SDS011;70065;42.700;23.316;2023-07-20T23:02:39;3.00;;;2.17;;
80559;SDS011;70065;42.700;23.316;2023-07-20T23:05:08;3.38;;;2.22;;
80559;SDS011;70065;42.700;23.316;2023-07-20T23:07:35;3.30;;;2.17;;
80559;SDS011;70065;42.700;23.316;2023-07-20T23:10:01;4.60;;;2.60;;
80559;SDS011;70065;42.700;23.316;2023-07-20T23:12:26;3.40;;;2.55;;
80559;SDS011;70065;42.700;23.316;2023-07-20T23:14:52;2.85;;;2.40;;
80559;SDS011;70065;42.700;23.316;2023-07-20T23:17:18;3.30;;;2.50;;
80559;SDS011;70065;42.700;23.316;2023-07-20T23:19:43;3.05;;;2.15;;
80559;SDS011;70065;42.700;23.316;2023-07-20T23:22:09;3.40;;;2.42;;
80559;SDS011;70065;42.700;23.316;2023-07-20T23:24:35;2.45;;;2.25;;
80559;SDS011;70065;42.700;23.316;2023-07-20T23:27:01;3.15;;;2.40;;
80559;SDS011;70065;42.700;23.316;2023-07-20T23:29:27;3.95;;;2.30;;
80559;SDS011;70065;42.700;23.316;2023-07-20T23:31:54;2.70;;;2.15;;
80559;SDS011;70065;42.700;23.316;2023-07-20T23:34:20;3.25;;;2.40;;
80559;SDS011;70065;42.700;23.316;2023-07-20T23:36:45;2.40;;;2.17;;